sensor_id;sensor_type;location;lat;lon;timestamp;P1;durP1;ratioP1;P2;durP2;ratioP2
74630;SDS011;63138;55.082;38.804;2023-04-24T00:01:51;14.52;;;8.20;;
74630;SDS011;63138;55.082;38.804;2023-04-24T00:04:20;12.10;;;8.75;;
74630;SDS011;63138;55.082;38.804;2023-04-24T00:06:46;15.30;;;8.65;;
74630;SDS011;63138;55.082;38.804;2023-04-24T00:09:22;16.10;;;8.77;;
74630;SDS011;63138;55.082;38.804;2023-04-24T00:14:43;14.63;;;9.10;;
74630;SDS011;63138;55.082;38.804;2023-04-24T00:17:11;12.63;;;8.57;;
74630;SDS011;63138;55.082;38.804;2023-04-24T00:19:37;15.10;;;9.48;;
74630;SDS011;63138;55.082;38.804;2023-04-24T00:25:24;14.55;;;8.52;;
74630;SDS011;63138;55.082;38.804;2023-04-24T00:27:50;17.58;;;9.50;;
74630;SDS011;63138;55.082;38.804;2023-04-24T00:30:42;14.35;;;9.10;;
74630;SDS011;63138;55.082;38.804;2023-04-24T00:33:09;15.45;;;9.05;;
74630;SDS011;63138;55.082;38.804;2023-04-24T00:35:36;17.53;;;10.13;;
74630;SDS011;63138;55.082;38.804;2023-04-24T00:38:01;12.98;;;9.10;;
74630;SDS011;63138;55.082;38.804;2023-04-24T00:40:28;12.50;;;8.85;;
74630;SDS011;63138;55.082;38.804;2023-04-24T00:42:55;12.75;;;8.25;;
74630;SDS011;63138;55.082;38.804;2023-04-24T00:45:21;16.87;;;10.10;;
74630;SDS011;63138;55.082;38.804;2023-04-24T00:47:48;16.25;;;9.15;;
74630;SDS011;63138;55.082;38.804;2023-04-24T00:50:39;13.50;;;8.90;;
74630;SDS011;63138;55.082;38.804;2023-04-24T00:53:05;12.38;;;8.90;;
74630;SDS011;63138;55.082;38.804;2023-04-24T00:55:32;14.32;;;8.23;;
74630;SDS011;63138;55.082;38.804;2023-04-24T00:57:59;16.67;;;9.77;;
74630;SDS011;63138;55.082;38.804;2023-04-24T01:00:31;11.30;;;7.85;;
74630;SDS011;63138;55.082;38.804;2023-04-24T01:02:59;12.82;;;8.73;;
74630;SDS011;63138;55.082;38.804;2023-04-24T01:05:27;9.80;;;7.63;;
74630;SDS011;63138;55.082;38.804;2023-04-24T01:07:53;13.38;;;7.90;;
74630;SDS011;63138;55.082;38.804;2023-04-24T01:10:22;14.75;;;9.00;;
74630;SDS011;63138;55.082;38.804;2023-04-24T01:12:51;16.38;;;9.82;;
74630;SDS011;63138;55.082;38.804;2023-04-24T01:15:19;10.30;;;7.68;;
74630;SDS011;63138;55.082;38.804;2023-04-24T01:17:45;15.27;;;8.53;;
74630;SDS011;63138;55.082;38.804;2023-04-24T01:20:13;13.93;;;8.55;;
74630;SDS011;63138;55.082;38.804;2023-04-24T01:22:59;13.13;;;8.55;;
74630;SDS011;63138;55.082;38.804;2023-04-24T01:25:26;15.05;;;8.52;;
74630;SDS011;63138;55.082;38.804;2023-04-24T01:27:56;13.02;;;8.70;;
74630;SDS011;63138;55.082;38.804;2023-04-24T01:30:22;18.37;;;10.47;;
74630;SDS011;63138;55.082;38.804;2023-04-24T01:32:50;14.25;;;8.50;;
74630;SDS011;63138;55.082;38.804;2023-04-24T01:35:17;14.95;;;8.63;;
74630;SDS011;63138;55.082;38.804;2023-04-24T01:37:49;17.35;;;9.60;;
74630;SDS011;63138;55.082;38.804;2023-04-24T01:40:22;16.27;;;9.43;;
74630;SDS011;63138;55.082;38.804;2023-04-24T01:42:48;13.00;;;8.73;;
74630;SDS011;63138;55.082;38.804;2023-04-24T01:45:15;16.65;;;9.40;;
74630;SDS011;63138;55.082;38.804;2023-04-24T01:47:41;13.18;;;8.60;;
74630;SDS011;63138;55.082;38.804;2023-04-24T01:50:07;15.68;;;8.82;;
74630;SDS011;63138;55.082;38.804;2023-04-24T01:52:38;14.30;;;9.47;;
74630;SDS011;63138;55.082;38.804;2023-04-24T01:55:04;21.90;;;9.63;;
74630;SDS011;63138;55.082;38.804;2023-04-24T01:57:31;15.20;;;9.40;;
74630;SDS011;63138;55.082;38.804;2023-04-24T01:59:58;14.43;;;9.48;;
74630;SDS011;63138;55.082;38.804;2023-04-24T02:02:25;15.35;;;9.90;;
74630;SDS011;63138;55.082;38.804;2023-04-24T02:04:53;20.90;;;10.03;;
74630;SDS011;63138;55.082;38.804;2023-04-24T02:07:19;14.75;;;9.70;;
74630;SDS011;63138;55.082;38.804;2023-04-24T02:09:46;17.17;;;10.52;;
74630;SDS011;63138;55.082;38.804;2023-04-24T02:12:13;18.83;;;9.50;;
74630;SDS011;63138;55.082;38.804;2023-04-24T02:14:40;17.70;;;9.98;;
74630;SDS011;63138;55.082;38.804;2023-04-24T02:17:09;15.53;;;9.53;;
74630;SDS011;63138;55.082;38.804;2023-04-24T02:19:38;16.17;;;9.15;;
74630;SDS011;63138;55.082;38.804;2023-04-24T02:22:12;17.60;;;9.35;;
74630;SDS011;63138;55.082;38.804;2023-04-24T02:24:38;23.00;;;10.48;;
74630;SDS011;63138;55.082;38.804;2023-04-24T02:27:05;16.88;;;10.38;;
74630;SDS011;63138;55.082;38.804;2023-04-24T02:29:32;18.07;;;10.30;;
74630;SDS011;63138;55.082;38.804;2023-04-24T02:31:58;15.80;;;8.52;;
74630;SDS011;63138;55.082;38.804;2023-04-24T02:34:24;14.05;;;9.45;;
74630;SDS011;63138;55.082;38.804;2023-04-24T02:36:50;14.13;;;8.80;;
74630;SDS011;63138;55.082;38.804;2023-04-24T02:39:16;14.73;;;8.53;;
74630;SDS011;63138;55.082;38.804;2023-04-24T02:41:43;16.02;;;8.77;;
74630;SDS011;63138;55.082;38.804;2023-04-24T02:44:09;14.18;;;9.30;;
74630;SDS011;63138;55.082;38.804;2023-04-24T02:46:36;15.95;;;9.23;;
74630;SDS011;63138;55.082;38.804;2023-04-24T02:49:02;14.87;;;8.53;;
74630;SDS011;63138;55.082;38.804;2023-04-24T02:51:28;18.02;;;9.20;;
74630;SDS011;63138;55.082;38.804;2023-04-24T02:53:55;17.15;;;9.88;;
74630;SDS011;63138;55.082;38.804;2023-04-24T02:56:21;14.07;;;8.32;;
74630;SDS011;63138;55.082;38.804;2023-04-24T02:58:47;14.40;;;9.47;;
74630;SDS011;63138;55.082;38.804;2023-04-24T03:01:14;15.27;;;8.95;;
74630;SDS011;63138;55.082;38.804;2023-04-24T03:03:40;19.85;;;9.88;;
74630;SDS011;63138;55.082;38.804;2023-04-24T03:06:05;16.83;;;9.73;;
74630;SDS011;63138;55.082;38.804;2023-04-24T03:08:57;16.43;;;8.70;;
74630;SDS011;63138;55.082;38.804;2023-04-24T03:11:25;16.60;;;10.07;;
74630;SDS011;63138;55.082;38.804;2023-04-24T03:13:54;21.10;;;11.07;;
74630;SDS011;63138;55.082;38.804;2023-04-24T03:16:20;15.98;;;9.85;;
74630;SDS011;63138;55.082;38.804;2023-04-24T03:18:47;15.77;;;8.98;;
74630;SDS011;63138;55.082;38.804;2023-04-24T03:21:14;14.00;;;9.17;;
74630;SDS011;63138;55.082;38.804;2023-04-24T03:23:43;17.40;;;9.15;;
74630;SDS011;63138;55.082;38.804;2023-04-24T03:26:09;17.98;;;9.68;;
74630;SDS011;63138;55.082;38.804;2023-04-24T03:28:54;17.67;;;10.20;;
74630;SDS011;63138;55.082;38.804;2023-04-24T03:31:20;20.75;;;9.95;;
74630;SDS011;63138;55.082;38.804;2023-04-24T03:33:47;19.17;;;10.73;;
74630;SDS011;63138;55.082;38.804;2023-04-24T03:36:14;14.70;;;8.65;;
74630;SDS011;63138;55.082;38.804;2023-04-24T03:38:41;16.63;;;9.80;;
74630;SDS011;63138;55.082;38.804;2023-04-24T03:41:21;17.10;;;9.60;;
74630;SDS011;63138;55.082;38.804;2023-04-24T03:43:53;18.42;;;9.02;;
74630;SDS011;63138;55.082;38.804;2023-04-24T03:46:19;17.97;;;9.47;;
74630;SDS011;63138;55.082;38.804;2023-04-24T03:49:12;14.65;;;7.85;;
74630;SDS011;63138;55.082;38.804;2023-04-24T03:51:42;15.13;;;10.55;;
74630;SDS011;63138;55.082;38.804;2023-04-24T03:54:30;21.17;;;9.95;;
74630;SDS011;63138;55.082;38.804;2023-04-24T03:56:59;17.48;;;9.70;;
74630;SDS011;63138;55.082;38.804;2023-04-24T03:59:28;14.40;;;9.37;;
74630;SDS011;63138;55.082;38.804;2023-04-24T04:05:00;19.77;;;10.18;;
74630;SDS011;63138;55.082;38.804;2023-04-24T04:10:24;16.92;;;9.35;;
74630;SDS011;63138;55.082;38.804;2023-04-24T04:12:51;14.30;;;9.40;;
74630;SDS011;63138;55.082;38.804;2023-04-24T04:15:18;16.98;;;10.18;;
74630;SDS011;63138;55.082;38.804;2023-04-24T04:17:44;19.25;;;10.88;;
74630;SDS011;63138;55.082;38.804;2023-04-24T04:20:11;17.13;;;9.23;;
74630;SDS011;63138;55.082;38.804;2023-04-24T04:22:39;20.10;;;11.25;;
74630;SDS011;63138;55.082;38.804;2023-04-24T04:25:08;15.47;;;9.73;;
74630;SDS011;63138;55.082;38.804;2023-04-24T04:27:35;20.33;;;10.50;;
74630;SDS011;63138;55.082;38.804;2023-04-24T04:30:08;23.75;;;10.30;;
74630;SDS011;63138;55.082;38.804;2023-04-24T04:32:50;19.40;;;10.70;;
74630;SDS011;63138;55.082;38.804;2023-04-24T04:35:16;17.92;;;10.68;;
74630;SDS011;63138;55.082;38.804;2023-04-24T04:37:43;18.17;;;11.30;;
74630;SDS011;63138;55.082;38.804;2023-04-24T04:40:34;20.65;;;10.18;;
74630;SDS011;63138;55.082;38.804;2023-04-24T04:43:04;19.13;;;10.48;;
74630;SDS011;63138;55.082;38.804;2023-04-24T04:45:37;16.35;;;10.88;;
74630;SDS011;63138;55.082;38.804;2023-04-24T04:48:28;27.85;;;11.25;;
74630;SDS011;63138;55.082;38.804;2023-04-24T04:50:57;18.10;;;10.00;;
74630;SDS011;63138;55.082;38.804;2023-04-24T04:53:24;17.80;;;10.65;;
74630;SDS011;63138;55.082;38.804;2023-04-24T04:55:51;21.65;;;11.32;;
74630;SDS011;63138;55.082;38.804;2023-04-24T04:58:19;19.42;;;11.35;;
74630;SDS011;63138;55.082;38.804;2023-04-24T05:00:50;21.55;;;10.82;;
74630;SDS011;63138;55.082;38.804;2023-04-24T05:03:24;16.30;;;11.00;;
74630;SDS011;63138;55.082;38.804;2023-04-24T05:06:04;27.20;;;11.90;;
74630;SDS011;63138;55.082;38.804;2023-04-24T05:08:35;20.92;;;13.35;;
74630;SDS011;63138;55.082;38.804;2023-04-24T05:11:03;22.52;;;12.98;;
74630;SDS011;63138;55.082;38.804;2023-04-24T05:13:54;29.05;;;15.23;;
74630;SDS011;63138;55.082;38.804;2023-04-24T05:16:28;25.00;;;13.47;;
74630;SDS011;63138;55.082;38.804;2023-04-24T05:18:55;23.90;;;14.18;;
74630;SDS011;63138;55.082;38.804;2023-04-24T05:21:40;27.92;;;13.13;;
74630;SDS011;63138;55.082;38.804;2023-04-24T05:24:10;61.58;;;16.83;;
74630;SDS011;63138;55.082;38.804;2023-04-24T05:27:01;24.35;;;14.57;;
74630;SDS011;63138;55.082;38.804;2023-04-24T05:29:34;20.43;;;12.50;;
74630;SDS011;63138;55.082;38.804;2023-04-24T05:32:00;20.95;;;12.40;;
74630;SDS011;63138;55.082;38.804;2023-04-24T05:34:28;22.05;;;13.60;;
74630;SDS011;63138;55.082;38.804;2023-04-24T05:36:56;20.02;;;12.35;;
74630;SDS011;63138;55.082;38.804;2023-04-24T05:39:22;22.93;;;13.57;;
74630;SDS011;63138;55.082;38.804;2023-04-24T05:41:50;19.93;;;13.03;;
74630;SDS011;63138;55.082;38.804;2023-04-24T05:44:17;22.67;;;13.98;;
74630;SDS011;63138;55.082;38.804;2023-04-24T05:46:43;19.30;;;13.60;;
74630;SDS011;63138;55.082;38.804;2023-04-24T05:49:31;15.73;;;11.35;;
74630;SDS011;63138;55.082;38.804;2023-04-24T05:52:34;20.92;;;13.30;;
74630;SDS011;63138;55.082;38.804;2023-04-24T05:55:04;18.57;;;12.83;;
74630;SDS011;63138;55.082;38.804;2023-04-24T05:57:33;16.88;;;12.35;;
74630;SDS011;63138;55.082;38.804;2023-04-24T06:00:04;19.80;;;13.88;;
74630;SDS011;63138;55.082;38.804;2023-04-24T06:02:39;17.55;;;12.57;;
74630;SDS011;63138;55.082;38.804;2023-04-24T06:05:09;20.13;;;12.48;;
74630;SDS011;63138;55.082;38.804;2023-04-24T06:07:36;16.70;;;12.03;;
74630;SDS011;63138;55.082;38.804;2023-04-24T06:10:04;16.50;;;10.95;;
74630;SDS011;63138;55.082;38.804;2023-04-24T06:12:39;14.13;;;11.60;;
74630;SDS011;63138;55.082;38.804;2023-04-24T06:15:31;18.77;;;12.10;;
74630;SDS011;63138;55.082;38.804;2023-04-24T06:18:03;16.08;;;11.18;;
74630;SDS011;63138;55.082;38.804;2023-04-24T06:20:32;17.27;;;11.90;;
74630;SDS011;63138;55.082;38.804;2023-04-24T06:22:58;21.70;;;11.27;;
74630;SDS011;63138;55.082;38.804;2023-04-24T06:25:25;19.52;;;11.30;;
74630;SDS011;63138;55.082;38.804;2023-04-24T06:27:52;14.15;;;10.75;;
74630;SDS011;63138;55.082;38.804;2023-04-24T06:30:19;12.20;;;10.45;;
74630;SDS011;63138;55.082;38.804;2023-04-24T06:32:45;14.30;;;10.57;;
74630;SDS011;63138;55.082;38.804;2023-04-24T06:35:11;11.95;;;10.63;;
74630;SDS011;63138;55.082;38.804;2023-04-24T06:37:41;14.13;;;9.73;;
74630;SDS011;63138;55.082;38.804;2023-04-24T06:40:08;12.80;;;9.68;;
74630;SDS011;63138;55.082;38.804;2023-04-24T06:42:54;10.90;;;9.20;;
74630;SDS011;63138;55.082;38.804;2023-04-24T06:45:21;13.32;;;9.63;;
74630;SDS011;63138;55.082;38.804;2023-04-24T06:47:47;13.70;;;9.35;;
74630;SDS011;63138;55.082;38.804;2023-04-24T06:50:14;12.35;;;8.80;;
74630;SDS011;63138;55.082;38.804;2023-04-24T06:52:41;9.27;;;7.53;;
74630;SDS011;63138;55.082;38.804;2023-04-24T06:55:07;13.27;;;8.95;;
74630;SDS011;63138;55.082;38.804;2023-04-24T07:00:48;10.27;;;7.07;;
74630;SDS011;63138;55.082;38.804;2023-04-24T07:03:15;10.77;;;6.90;;
74630;SDS011;63138;55.082;38.804;2023-04-24T07:05:42;13.45;;;7.60;;
74630;SDS011;63138;55.082;38.804;2023-04-24T07:08:09;10.98;;;7.53;;
74630;SDS011;63138;55.082;38.804;2023-04-24T07:10:37;13.73;;;7.78;;
74630;SDS011;63138;55.082;38.804;2023-04-24T07:13:03;10.85;;;7.10;;
74630;SDS011;63138;55.082;38.804;2023-04-24T07:15:32;10.73;;;7.47;;
74630;SDS011;63138;55.082;38.804;2023-04-24T07:18:24;11.55;;;7.43;;
74630;SDS011;63138;55.082;38.804;2023-04-24T07:20:49;8.73;;;7.68;;
74630;SDS011;63138;55.082;38.804;2023-04-24T07:23:16;7.50;;;6.70;;
74630;SDS011;63138;55.082;38.804;2023-04-24T07:25:42;7.63;;;5.63;;
74630;SDS011;63138;55.082;38.804;2023-04-24T07:28:09;7.15;;;5.53;;
74630;SDS011;63138;55.082;38.804;2023-04-24T07:30:35;7.85;;;5.78;;
74630;SDS011;63138;55.082;38.804;2023-04-24T07:33:01;7.05;;;5.93;;
74630;SDS011;63138;55.082;38.804;2023-04-24T07:35:27;7.40;;;6.00;;
74630;SDS011;63138;55.082;38.804;2023-04-24T07:40:49;9.13;;;6.43;;
74630;SDS011;63138;55.082;38.804;2023-04-24T07:43:14;9.82;;;6.20;;
74630;SDS011;63138;55.082;38.804;2023-04-24T07:45:41;5.88;;;5.10;;
74630;SDS011;63138;55.082;38.804;2023-04-24T07:48:06;9.57;;;5.50;;
74630;SDS011;63138;55.082;38.804;2023-04-24T07:50:53;14.00;;;7.40;;
74630;SDS011;63138;55.082;38.804;2023-04-24T07:53:20;12.30;;;5.28;;
74630;SDS011;63138;55.082;38.804;2023-04-24T07:55:45;9.53;;;6.13;;
74630;SDS011;63138;55.082;38.804;2023-04-24T07:58:11;5.25;;;4.75;;
74630;SDS011;63138;55.082;38.804;2023-04-24T08:00:38;10.52;;;5.57;;
74630;SDS011;63138;55.082;38.804;2023-04-24T08:03:05;5.22;;;4.72;;
74630;SDS011;63138;55.082;38.804;2023-04-24T08:05:31;5.70;;;5.10;;
74630;SDS011;63138;55.082;38.804;2023-04-24T08:07:58;5.40;;;4.90;;
74630;SDS011;63138;55.082;38.804;2023-04-24T08:10:24;7.05;;;5.57;;
74630;SDS011;63138;55.082;38.804;2023-04-24T08:12:51;5.50;;;5.00;;
74630;SDS011;63138;55.082;38.804;2023-04-24T08:15:18;6.47;;;5.57;;
74630;SDS011;63138;55.082;38.804;2023-04-24T08:17:45;7.88;;;5.20;;
74630;SDS011;63138;55.082;38.804;2023-04-24T08:20:14;7.35;;;5.50;;
74630;SDS011;63138;55.082;38.804;2023-04-24T08:22:41;9.55;;;5.05;;
74630;SDS011;63138;55.082;38.804;2023-04-24T08:25:30;6.63;;;4.90;;
74630;SDS011;63138;55.082;38.804;2023-04-24T08:27:56;6.87;;;4.90;;
74630;SDS011;63138;55.082;38.804;2023-04-24T08:30:24;7.22;;;5.65;;
74630;SDS011;63138;55.082;38.804;2023-04-24T08:32:51;6.60;;;5.25;;
74630;SDS011;63138;55.082;38.804;2023-04-24T08:35:29;9.13;;;5.32;;
74630;SDS011;63138;55.082;38.804;2023-04-24T08:38:20;9.43;;;5.55;;
74630;SDS011;63138;55.082;38.804;2023-04-24T08:41:09;6.57;;;5.67;;
74630;SDS011;63138;55.082;38.804;2023-04-24T08:43:35;10.60;;;5.50;;
74630;SDS011;63138;55.082;38.804;2023-04-24T08:46:04;8.20;;;6.00;;
74630;SDS011;63138;55.082;38.804;2023-04-24T08:48:32;7.72;;;5.95;;
74630;SDS011;63138;55.082;38.804;2023-04-24T08:50:58;9.07;;;6.90;;
74630;SDS011;63138;55.082;38.804;2023-04-24T08:53:25;8.40;;;6.17;;
74630;SDS011;63138;55.082;38.804;2023-04-24T08:55:51;6.75;;;6.05;;
74630;SDS011;63138;55.082;38.804;2023-04-24T08:58:27;7.68;;;5.95;;
74630;SDS011;63138;55.082;38.804;2023-04-24T09:00:55;5.43;;;4.10;;
74630;SDS011;63138;55.082;38.804;2023-04-24T09:03:23;7.88;;;5.57;;
74630;SDS011;63138;55.082;38.804;2023-04-24T09:05:53;7.47;;;5.40;;
74630;SDS011;63138;55.082;38.804;2023-04-24T09:11:15;10.90;;;5.60;;
74630;SDS011;63138;55.082;38.804;2023-04-24T09:16:35;9.73;;;5.40;;
74630;SDS011;63138;55.082;38.804;2023-04-24T09:19:27;12.23;;;5.60;;
74630;SDS011;63138;55.082;38.804;2023-04-24T09:21:53;5.68;;;5.07;;
74630;SDS011;63138;55.082;38.804;2023-04-24T09:24:21;9.10;;;4.95;;
74630;SDS011;63138;55.082;38.804;2023-04-24T09:26:57;6.40;;;5.18;;
74630;SDS011;63138;55.082;38.804;2023-04-24T09:29:24;6.95;;;4.75;;
74630;SDS011;63138;55.082;38.804;2023-04-24T09:31:50;9.47;;;5.07;;
74630;SDS011;63138;55.082;38.804;2023-04-24T09:34:21;9.05;;;5.03;;
74630;SDS011;63138;55.082;38.804;2023-04-24T09:36:52;7.40;;;4.93;;
74630;SDS011;63138;55.082;38.804;2023-04-24T09:39:45;8.15;;;5.15;;
74630;SDS011;63138;55.082;38.804;2023-04-24T09:42:16;9.48;;;5.35;;
74630;SDS011;63138;55.082;38.804;2023-04-24T09:44:44;7.07;;;5.43;;
74630;SDS011;63138;55.082;38.804;2023-04-24T09:47:18;7.13;;;5.68;;
74630;SDS011;63138;55.082;38.804;2023-04-24T09:49:44;12.65;;;5.95;;
74630;SDS011;63138;55.082;38.804;2023-04-24T09:52:11;8.75;;;5.70;;
74630;SDS011;63138;55.082;38.804;2023-04-24T09:54:37;7.50;;;4.55;;
74630;SDS011;63138;55.082;38.804;2023-04-24T09:57:04;7.80;;;4.87;;
74630;SDS011;63138;55.082;38.804;2023-04-24T09:59:31;7.63;;;5.45;;
74630;SDS011;63138;55.082;38.804;2023-04-24T10:01:59;6.97;;;4.97;;
74630;SDS011;63138;55.082;38.804;2023-04-24T10:04:28;6.90;;;5.20;;
74630;SDS011;63138;55.082;38.804;2023-04-24T10:06:55;7.68;;;5.35;;
74630;SDS011;63138;55.082;38.804;2023-04-24T10:09:23;10.70;;;6.03;;
74630;SDS011;63138;55.082;38.804;2023-04-24T10:11:54;5.35;;;4.60;;
74630;SDS011;63138;55.082;38.804;2023-04-24T10:14:22;8.20;;;5.40;;
74630;SDS011;63138;55.082;38.804;2023-04-24T10:16:50;11.13;;;4.97;;
74630;SDS011;63138;55.082;38.804;2023-04-24T10:19:26;8.45;;;5.03;;
74630;SDS011;63138;55.082;38.804;2023-04-24T10:21:52;8.87;;;5.00;;
74630;SDS011;63138;55.082;38.804;2023-04-24T10:24:21;7.32;;;5.65;;
74630;SDS011;63138;55.082;38.804;2023-04-24T10:29:43;7.30;;;5.10;;
74630;SDS011;63138;55.082;38.804;2023-04-24T10:32:15;6.65;;;5.10;;
74630;SDS011;63138;55.082;38.804;2023-04-24T10:34:41;11.40;;;6.00;;
74630;SDS011;63138;55.082;38.804;2023-04-24T10:37:09;12.25;;;5.43;;
74630;SDS011;63138;55.082;38.804;2023-04-24T10:39:36;8.30;;;5.07;;
74630;SDS011;63138;55.082;38.804;2023-04-24T10:42:13;7.35;;;4.32;;
74630;SDS011;63138;55.082;38.804;2023-04-24T10:44:42;7.90;;;5.22;;
74630;SDS011;63138;55.082;38.804;2023-04-24T10:47:14;6.53;;;4.23;;
74630;SDS011;63138;55.082;38.804;2023-04-24T10:49:41;8.43;;;4.50;;
74630;SDS011;63138;55.082;38.804;2023-04-24T10:52:08;8.32;;;4.70;;
74630;SDS011;63138;55.082;38.804;2023-04-24T10:54:36;9.57;;;5.30;;
74630;SDS011;63138;55.082;38.804;2023-04-24T10:57:40;7.20;;;4.63;;
74630;SDS011;63138;55.082;38.804;2023-04-24T11:00:10;10.83;;;4.80;;
74630;SDS011;63138;55.082;38.804;2023-04-24T11:03:31;12.93;;;4.93;;
74630;SDS011;63138;55.082;38.804;2023-04-24T11:08:43;7.47;;;4.90;;
74630;SDS011;63138;55.082;38.804;2023-04-24T11:16:34;7.68;;;5.28;;
74630;SDS011;63138;55.082;38.804;2023-04-24T11:22:03;7.13;;;5.25;;
74630;SDS011;63138;55.082;38.804;2023-04-24T11:27:42;8.70;;;4.57;;
74630;SDS011;63138;55.082;38.804;2023-04-24T11:30:09;5.97;;;4.40;;
74630;SDS011;63138;55.082;38.804;2023-04-24T11:32:37;8.68;;;4.60;;
74630;SDS011;63138;55.082;38.804;2023-04-24T11:35:05;5.90;;;4.60;;
74630;SDS011;63138;55.082;38.804;2023-04-24T11:40:05;7.07;;;4.10;;
74630;SDS011;63138;55.082;38.804;2023-04-24T11:42:35;11.48;;;4.57;;
74630;SDS011;63138;55.082;38.804;2023-04-24T11:45:13;7.95;;;4.47;;
74630;SDS011;63138;55.082;38.804;2023-04-24T11:47:44;12.73;;;4.18;;
74630;SDS011;63138;55.082;38.804;2023-04-24T11:50:13;9.27;;;4.50;;
74630;SDS011;63138;55.082;38.804;2023-04-24T11:52:43;7.20;;;4.40;;
74630;SDS011;63138;55.082;38.804;2023-04-24T11:55:41;9.18;;;4.20;;
74630;SDS011;63138;55.082;38.804;2023-04-24T12:01:04;7.53;;;4.20;;
74630;SDS011;63138;55.082;38.804;2023-04-24T12:03:31;6.90;;;4.32;;
74630;SDS011;63138;55.082;38.804;2023-04-24T12:06:07;12.13;;;5.03;;
74630;SDS011;63138;55.082;38.804;2023-04-24T12:08:35;9.25;;;6.03;;
74630;SDS011;63138;55.082;38.804;2023-04-24T12:11:05;10.43;;;5.22;;
74630;SDS011;63138;55.082;38.804;2023-04-24T12:13:36;7.30;;;4.90;;
74630;SDS011;63138;55.082;38.804;2023-04-24T12:16:03;6.97;;;4.30;;
74630;SDS011;63138;55.082;38.804;2023-04-24T12:18:30;6.37;;;4.07;;
74630;SDS011;63138;55.082;38.804;2023-04-24T12:21:17;6.25;;;4.43;;
74630;SDS011;63138;55.082;38.804;2023-04-24T12:23:47;5.53;;;3.60;;
74630;SDS011;63138;55.082;38.804;2023-04-24T12:26:45;6.43;;;4.40;;
74630;SDS011;63138;55.082;38.804;2023-04-24T12:29:19;10.07;;;4.10;;
74630;SDS011;63138;55.082;38.804;2023-04-24T12:31:48;6.88;;;4.65;;
74630;SDS011;63138;55.082;38.804;2023-04-24T12:34:22;6.28;;;4.10;;
74630;SDS011;63138;55.082;38.804;2023-04-24T12:36:49;16.50;;;5.50;;
74630;SDS011;63138;55.082;38.804;2023-04-24T12:39:16;7.55;;;4.45;;
74630;SDS011;63138;55.082;38.804;2023-04-24T12:41:50;5.73;;;3.70;;
74630;SDS011;63138;55.082;38.804;2023-04-24T12:47:17;9.82;;;4.13;;
74630;SDS011;63138;55.082;38.804;2023-04-24T12:49:44;8.30;;;4.30;;
74630;SDS011;63138;55.082;38.804;2023-04-24T12:52:11;9.73;;;5.00;;
74630;SDS011;63138;55.082;38.804;2023-04-24T12:54:38;11.30;;;4.87;;
74630;SDS011;63138;55.082;38.804;2023-04-24T12:57:05;7.10;;;4.10;;
74630;SDS011;63138;55.082;38.804;2023-04-24T12:59:31;8.63;;;4.95;;
74630;SDS011;63138;55.082;38.804;2023-04-24T13:01:59;9.52;;;4.45;;
74630;SDS011;63138;55.082;38.804;2023-04-24T13:04:25;9.33;;;4.50;;
74630;SDS011;63138;55.082;38.804;2023-04-24T13:06:51;12.05;;;4.43;;
74630;SDS011;63138;55.082;38.804;2023-04-24T13:09:18;6.63;;;4.00;;
74630;SDS011;63138;55.082;38.804;2023-04-24T13:11:45;7.82;;;4.45;;
74630;SDS011;63138;55.082;38.804;2023-04-24T13:14:11;7.00;;;4.40;;
74630;SDS011;63138;55.082;38.804;2023-04-24T13:16:37;9.37;;;5.10;;
74630;SDS011;63138;55.082;38.804;2023-04-24T13:19:03;8.32;;;4.65;;
74630;SDS011;63138;55.082;38.804;2023-04-24T13:21:30;9.15;;;4.90;;
74630;SDS011;63138;55.082;38.804;2023-04-24T13:23:57;9.65;;;5.13;;
74630;SDS011;63138;55.082;38.804;2023-04-24T13:26:23;9.03;;;5.27;;
74630;SDS011;63138;55.082;38.804;2023-04-24T13:28:52;11.05;;;5.50;;
74630;SDS011;63138;55.082;38.804;2023-04-24T13:31:50;10.20;;;5.53;;
74630;SDS011;63138;55.082;38.804;2023-04-24T13:34:17;9.40;;;5.38;;
74630;SDS011;63138;55.082;38.804;2023-04-24T13:36:43;9.93;;;4.95;;
74630;SDS011;63138;55.082;38.804;2023-04-24T13:39:13;7.13;;;3.97;;
74630;SDS011;63138;55.082;38.804;2023-04-24T13:41:39;8.43;;;4.43;;
74630;SDS011;63138;55.082;38.804;2023-04-24T13:44:09;9.68;;;4.80;;
74630;SDS011;63138;55.082;38.804;2023-04-24T13:46:35;9.55;;;4.68;;
74630;SDS011;63138;55.082;38.804;2023-04-24T13:49:02;10.55;;;5.10;;
74630;SDS011;63138;55.082;38.804;2023-04-24T13:54:21;8.35;;;4.60;;
74630;SDS011;63138;55.082;38.804;2023-04-24T13:56:51;7.57;;;5.25;;
74630;SDS011;63138;55.082;38.804;2023-04-24T13:59:17;5.65;;;3.60;;
74630;SDS011;63138;55.082;38.804;2023-04-24T14:01:47;11.60;;;4.50;;
74630;SDS011;63138;55.082;38.804;2023-04-24T14:04:13;12.40;;;5.20;;
74630;SDS011;63138;55.082;38.804;2023-04-24T14:06:45;9.48;;;5.20;;
74630;SDS011;63138;55.082;38.804;2023-04-24T14:09:38;15.77;;;5.65;;
74630;SDS011;63138;55.082;38.804;2023-04-24T14:12:04;10.85;;;4.97;;
74630;SDS011;63138;55.082;38.804;2023-04-24T14:14:34;8.67;;;5.10;;
74630;SDS011;63138;55.082;38.804;2023-04-24T14:17:00;9.38;;;4.70;;
74630;SDS011;63138;55.082;38.804;2023-04-24T14:22:48;7.07;;;4.38;;
74630;SDS011;63138;55.082;38.804;2023-04-24T14:25:13;8.80;;;4.93;;
74630;SDS011;63138;55.082;38.804;2023-04-24T14:27:42;5.80;;;3.63;;
74630;SDS011;63138;55.082;38.804;2023-04-24T14:30:09;8.20;;;4.40;;
74630;SDS011;63138;55.082;38.804;2023-04-24T14:35:52;10.55;;;5.40;;
74630;SDS011;63138;55.082;38.804;2023-04-24T14:38:18;7.67;;;5.20;;
74630;SDS011;63138;55.082;38.804;2023-04-24T14:40:45;9.15;;;4.88;;
74630;SDS011;63138;55.082;38.804;2023-04-24T14:43:11;8.02;;;4.45;;
74630;SDS011;63138;55.082;38.804;2023-04-24T14:45:37;11.93;;;4.18;;
74630;SDS011;63138;55.082;38.804;2023-04-24T14:48:03;11.27;;;4.72;;
74630;SDS011;63138;55.082;38.804;2023-04-24T14:50:30;8.53;;;4.50;;
74630;SDS011;63138;55.082;38.804;2023-04-24T14:52:56;11.20;;;4.97;;
74630;SDS011;63138;55.082;38.804;2023-04-24T14:55:24;16.95;;;6.95;;
74630;SDS011;63138;55.082;38.804;2023-04-24T14:57:52;13.13;;;6.53;;
74630;SDS011;63138;55.082;38.804;2023-04-24T15:00:19;14.13;;;6.57;;
74630;SDS011;63138;55.082;38.804;2023-04-24T15:02:47;9.07;;;5.43;;
74630;SDS011;63138;55.082;38.804;2023-04-24T15:08:08;11.45;;;5.90;;
74630;SDS011;63138;55.082;38.804;2023-04-24T15:10:36;11.23;;;5.93;;
74630;SDS011;63138;55.082;38.804;2023-04-24T15:13:02;12.30;;;4.97;;
74630;SDS011;63138;55.082;38.804;2023-04-24T15:15:30;9.70;;;4.20;;
74630;SDS011;63138;55.082;38.804;2023-04-24T15:18:00;8.63;;;4.43;;
74630;SDS011;63138;55.082;38.804;2023-04-24T15:20:27;7.00;;;4.38;;
74630;SDS011;63138;55.082;38.804;2023-04-24T15:22:54;8.75;;;5.03;;
74630;SDS011;63138;55.082;38.804;2023-04-24T15:25:20;11.83;;;6.53;;
74630;SDS011;63138;55.082;38.804;2023-04-24T15:27:47;11.82;;;5.50;;
74630;SDS011;63138;55.082;38.804;2023-04-24T15:30:15;12.75;;;5.85;;
74630;SDS011;63138;55.082;38.804;2023-04-24T15:32:41;9.38;;;5.13;;
74630;SDS011;63138;55.082;38.804;2023-04-24T15:35:07;16.33;;;6.20;;
74630;SDS011;63138;55.082;38.804;2023-04-24T15:37:34;11.03;;;5.23;;
74630;SDS011;63138;55.082;38.804;2023-04-24T15:40:02;10.13;;;5.13;;
74630;SDS011;63138;55.082;38.804;2023-04-24T15:42:33;8.27;;;5.00;;